Time;durP1;ratioP1;P1;durP2;ratioP2;P2;SDS_P1;SDS_P2;PMS_P1;PMS_P2;Temp;Humidity;BMP_temperature;BMP_pressure;BME280_temperature;BME280_humidity;BME280_pressure;Samples;Min_cycle;Max_cycle;Signal;HPM_P1;HPM_P2
2022/03/06 00:01:14;;;;;;;15.07;7.85;;;;;;;-5.44;72.49;97636.91;5055996;28;20067;-66
2022/03/06 00:03:43;;;;;;;14.93;7.53;;;;;;;-5.45;72.80;97631.78;5039319;28;20069;-67
2022/03/06 00:06:10;;;;;;;18.30;8.68;;;;;;;-5.59;72.64;97641.81;5025413;28;20033;-66
2022/03/06 00:08:37;;;;;;;14.73;7.43;;;;;;;-5.75;73.31;97637.13;5028976;28;20050;-64
2022/03/06 00:11:03;;;;;;;18.88;9.15;;;;;;;-5.76;73.31;97635.44;5036312;28;20520;-68
2022/03/06 00:13:30;;;;;;;13.68;6.97;;;;;;;-5.73;73.19;97635.16;5044866;28;20045;-65
2022/03/06 00:15:56;;;;;;;19.10;7.65;;;;;;;-5.72;73.48;97636.81;5044029;28;20037;-66
2022/03/06 00:18:23;;;;;;;12.60;6.90;;;;;;;-5.73;72.91;97637.81;5043269;28;20458;-66
2022/03/06 00:20:49;;;;;;;14.02;7.38;;;;;;;-5.83;73.47;97642.28;5043304;28;20049;-69
2022/03/06 00:23:17;;;;;;;11.27;6.72;;;;;;;-5.76;73.08;97641.56;5044478;28;20098;-67
2022/03/06 00:25:43;;;;;;;11.80;5.57;;;;;;;-5.79;73.27;97641.84;5044878;28;20045;-64
2022/03/06 00:28:10;;;;;;;19.33;8.65;;;;;;;-5.84;73.77;97633.50;5044027;28;20048;-66
2022/03/06 00:30:37;;;;;;;16.02;7.10;;;;;;;-6.12;74.05;97635.25;5025761;28;20588;-65
2022/03/06 00:33:05;;;;;;;15.85;9.02;;;;;;;-6.25;74.92;97631.06;5043873;28;20114;-68
2022/03/06 00:35:32;;;;;;;16.42;8.13;;;;;;;-6.22;74.90;97636.06;5028279;28;20053;-68
2022/03/06 00:37:59;;;;;;;12.23;6.90;;;;;;;-6.14;75.07;97638.00;5028800;28;20508;-65
2022/03/06 00:40:25;;;;;;;17.85;8.30;;;;;;;-6.07;74.49;97638.28;5045756;28;20040;-65
2022/03/06 00:42:53;;;;;;;14.93;7.03;;;;;;;-6.22;74.85;97635.22;5043554;28;20041;-68
2022/03/06 00:45:20;;;;;;;11.02;5.63;;;;;;;-6.30;75.06;97635.94;5031332;28;20045;-66
2022/03/06 00:47:46;;;;;;;13.70;5.70;;;;;;;-6.34;74.68;97637.19;5044128;28;20044;-68
2022/03/06 00:50:13;;;;;;;15.00;6.22;;;;;;;-6.54;75.77;97639.78;5048042;28;20049;-65
2022/03/06 00:52:40;;;;;;;13.30;6.75;;;;;;;-6.36;75.26;97641.75;5047072;28;20041;-67
2022/03/06 00:55:08;;;;;;;14.98;9.00;;;;;;;-6.29;75.07;97643.72;5048419;28;20048;-69
2022/03/06 00:57:35;;;;;;;14.40;6.03;;;;;;;-6.27;75.26;97644.38;5046377;28;20064;-68
2022/03/06 01:00:04;;;;;;;11.55;6.50;;;;;;;-5.97;74.69;97649.63;5035928;28;20072;-70
2022/03/06 01:02:30;;;;;;;15.73;6.13;;;;;;;-5.78;74.17;97648.75;5048813;28;20045;-67
2022/03/06 01:04:57;;;;;;;11.98;6.25;;;;;;;-5.61;73.38;97649.03;5042002;28;20053;-66
2022/03/06 01:07:24;;;;;;;12.75;6.57;;;;;;;-5.47;73.27;97653.03;5032285;28;20509;-68
2022/03/06 01:09:51;;;;;;;16.05;7.30;;;;;;;-5.41;72.76;97664.81;5028334;28;20068;-66
2022/03/06 01:12:18;;;;;;;15.88;7.63;;;;;;;-5.42;72.58;97650.78;5037462;28;20041;-66
2022/03/06 01:14:45;;;;;;;13.68;6.53;;;;;;;-5.27;72.40;97652.97;5040680;28;20069;-69
2022/03/06 01:17:12;;;;;;;11.98;6.50;;;;;;;-5.31;72.68;97654.25;5027327;28;20045;-67
2022/03/06 01:19:38;;;;;;;14.82;7.25;;;;;;;-5.22;72.06;97656.84;5027083;28;20049;-66
2022/03/06 01:22:05;;;;;;;16.45;7.38;;;;;;;-5.04;71.11;97655.25;5027286;28;20124;-66
2022/03/06 01:24:32;;;;;;;16.85;8.27;;;;;;;-5.14;71.47;97658.75;5026970;28;20547;-65
2022/03/06 01:26:59;;;;;;;14.38;6.88;;;;;;;-5.22;71.78;97661.28;5027397;28;20045;-67
2022/03/06 01:29:26;;;;;;;16.02;7.65;;;;;;;-5.23;72.39;97663.09;5027019;28;20045;-70
2022/03/06 01:31:52;;;;;;;11.40;6.90;;;;;;;-5.29;72.12;97663.69;5041659;28;20090;-68
2022/03/06 01:34:19;;;;;;;14.35;6.53;;;;;;;-5.25;71.78;97659.78;5047778;28;20052;-64
2022/03/06 01:36:46;;;;;;;14.98;7.05;;;;;;;-5.31;72.10;97654.25;5029115;28;20644;-68
2022/03/06 01:39:12;;;;;;;17.23;7.35;;;;;;;-5.47;72.48;97660.94;5027914;28;20058;-65
2022/03/06 01:41:39;;;;;;;13.13;6.88;;;;;;;-5.54;72.99;97654.56;5035582;28;20051;-66
2022/03/06 01:44:11;;;;;;;17.15;8.25;;;;;;;-5.67;73.72;97652.25;5046415;28;20049;-67
2022/03/06 01:46:38;;;;;;;14.15;7.35;;;;;;;-5.66;74.00;97657.38;5046620;28;20037;-65
2022/03/06 01:49:04;;;;;;;13.82;6.85;;;;;;;-5.75;73.64;97663.50;5046587;28;20052;-66
2022/03/06 01:51:31;;;;;;;14.65;7.75;;;;;;;-5.95;74.14;97649.47;5035298;28;20186;-66
2022/03/06 01:53:57;;;;;;;12.80;6.35;;;;;;;-6.12;74.79;97651.06;5035210;28;20049;-67
2022/03/06 01:56:24;;;;;;;14.38;6.97;;;;;;;-6.16;74.51;97643.41;5026129;28;20041;-66
2022/03/06 01:58:51;;;;;;;14.75;7.60;;;;;;;-6.35;75.97;97638.97;5036816;28;20049;-67
2022/03/06 02:01:17;;;;;;;13.50;7.25;;;;;;;-6.36;75.60;97637.31;5044806;28;20045;-66
2022/03/06 02:03:44;;;;;;;16.15;7.97;;;;;;;-6.48;76.12;97635.78;5046853;28;20048;-69
2022/03/06 02:06:11;;;;;;;17.27;7.82;;;;;;;-6.49;76.37;97644.66;5035923;28;20041;-66
2022/03/06 02:08:39;;;;;;;13.38;6.63;;;;;;;-6.48;75.60;97643.69;5033677;28;20029;-68
2022/03/06 02:11:07;;;;;;;17.27;6.60;;;;;;;-6.47;76.34;97634.78;5037180;28;20042;-65
2022/03/06 02:13:34;;;;;;;14.35;8.50;;;;;;;-6.56;76.48;97625.94;5044755;28;20041;-65
2022/03/06 02:16:01;;;;;;;14.18;7.35;;;;;;;-6.61;76.75;97641.28;5027006;28;20693;-65
2022/03/06 02:18:27;;;;;;;13.75;6.85;;;;;;;-6.68;76.13;97638.38;5026881;28;20100;-69
2022/03/06 02:20:54;;;;;;;17.13;6.90;;;;;;;-6.72;77.04;97637.81;5034446;28;20049;-65
2022/03/06 02:23:21;;;;;;;16.25;7.13;;;;;;;-6.70;76.70;97633.25;5041531;28;20508;-66
2022/03/06 02:25:47;;;;;;;14.20;6.57;;;;;;;-6.80;76.97;97632.38;5043329;28;20547;-69
2022/03/06 02:28:14;;;;;;;16.42;7.25;;;;;;;-6.88;77.17;97635.69;5046334;28;20069;-66
2022/03/06 02:30:42;;;;;;;20.05;7.93;;;;;;;-6.98;77.36;97640.09;5024251;28;20049;-65
2022/03/06 02:33:12;;;;;;;14.15;6.43;;;;;;;-7.02;77.06;97638.69;5040179;28;20048;-67
2022/03/06 02:35:39;;;;;;;14.65;7.50;;;;;;;-7.03;77.63;97640.50;5035809;28;20048;-64
2022/03/06 02:38:06;;;;;;;18.17;7.50;;;;;;;-7.04;77.52;97638.84;5030361;28;20041;-66
2022/03/06 02:40:41;;;;;;;16.00;7.40;;;;;;;-7.13;77.38;97634.34;5043312;28;20107;-66
2022/03/06 02:43:10;;;;;;;13.25;7.20;;;;;;;-7.15;78.43;97634.50;5048869;28;20144;-69
2022/03/06 02:45:38;;;;;;;11.45;6.13;;;;;;;-7.03;76.94;97631.75;5043637;28;20088;-67
2022/03/06 02:48:05;;;;;;;13.05;6.13;;;;;;;-7.12;77.55;97636.03;5040701;28;20416;-68
2022/03/06 02:50:38;;;;;;;21.38;8.32;;;;;;;-7.14;77.72;97640.59;5027671;28;20485;-67
2022/03/06 02:53:09;;;;;;;16.55;7.05;;;;;;;-7.11;77.40;97630.63;5045783;28;20500;-67
2022/03/06 02:55:38;;;;;;;16.98;8.30;;;;;;;-7.08;77.58;97637.44;5042591;28;20053;-68
2022/03/06 02:58:04;;;;;;;15.75;6.72;;;;;;;-7.05;77.94;97634.53;5029458;28;20040;-68
2022/03/06 03:00:31;;;;;;;10.82;6.20;;;;;;;-7.08;77.34;97634.81;5057176;28;20041;-67
2022/03/06 03:02:58;;;;;;;15.27;7.05;;;;;;;-7.06;77.31;97635.50;5050697;28;20462;-65
2022/03/06 03:05:26;;;;;;;18.00;7.97;;;;;;;-7.11;77.45;97629.81;5043833;28;20052;-68
2022/03/06 03:07:53;;;;;;;16.35;8.13;;;;;;;-7.05;77.59;97631.91;5027755;28;20174;-68
2022/03/06 03:10:22;;;;;;;16.30;7.25;;;;;;;-7.13;77.58;97640.47;5044950;28;20048;-67
2022/03/06 03:12:50;;;;;;;19.05;8.02;;;;;;;-7.18;77.60;97648.75;5024904;28;20042;-67
2022/03/06 03:15:17;;;;;;;15.23;7.90;;;;;;;-7.12;77.74;97647.38;5024869;28;20440;-68
2022/03/06 03:17:44;;;;;;;14.48;7.20;;;;;;;-7.24;77.25;97657.19;5024762;28;20056;-67
2022/03/06 03:20:12;;;;;;;18.05;7.28;;;;;;;-7.23;77.86;97648.31;5025757;28;20513;-69
2022/03/06 03:22:39;;;;;;;13.88;7.35;;;;;;;-7.18;78.17;97645.31;5044309;28;20045;-69
2022/03/06 03:25:07;;;;;;;17.52;8.63;;;;;;;-7.10;77.68;97647.25;5045673;28;20091;-67
2022/03/06 03:27:34;;;;;;;18.98;8.77;;;;;;;-7.10;77.40;97642.00;5026533;28;20050;-67
2022/03/06 03:30:02;;;;;;;14.07;6.88;;;;;;;-7.21;77.74;97651.66;5025923;28;20050;-67
2022/03/06 03:32:29;;;;;;;13.25;6.78;;;;;;;-7.22;77.96;97642.09;5038999;28;20045;-66
2022/03/06 03:34:55;;;;;;;19.13;8.02;;;;;;;-7.21;77.89;97649.03;5026370;28;20045;-70
2022/03/06 03:37:22;;;;;;;17.52;8.32;;;;;;;-7.26;77.95;97642.50;5042706;28;20041;-67
2022/03/06 03:39:48;;;;;;;12.18;6.50;;;;;;;-7.27;78.17;97654.81;5045184;28;20049;-68
2022/03/06 03:42:15;;;;;;;14.23;6.20;;;;;;;-7.27;77.78;97651.38;5041778;28;20036;-66
2022/03/06 03:44:41;;;;;;;16.02;7.35;;;;;;;-7.23;78.56;97655.41;5044339;28;20037;-69
2022/03/06 03:47:08;;;;;;;18.30;8.18;;;;;;;-7.18;78.25;97654.00;5044038;28;20045;-67
2022/03/06 03:49:35;;;;;;;15.57;7.10;;;;;;;-7.30;78.43;97655.06;5045161;28;20037;-66
2022/03/06 03:52:02;;;;;;;17.00;7.93;;;;;;;-7.37;78.78;97659.19;5031607;28;20497;-67
2022/03/06 03:54:28;;;;;;;19.45;7.93;;;;;;;-7.37;78.92;97662.66;5025319;28;20099;-66
2022/03/06 03:56:55;;;;;;;23.42;9.13;;;;;;;-7.37;78.43;97669.72;5036669;28;20048;-66
2022/03/06 03:59:22;;;;;;;12.82;5.22;;;;;;;-7.41;78.54;97666.50;5043499;28;20040;-70
2022/03/06 04:01:48;;;;;;;18.60;8.98;;;;;;;-7.37;78.87;97669.72;5041011;28;20044;-66
2022/03/06 04:04:15;;;;;;;17.02;7.55;;;;;;;-7.37;78.67;97681.06;5039968;28;20037;-65
2022/03/06 04:06:42;;;;;;;13.27;7.00;;;;;;;-7.40;78.60;97683.97;5024895;28;20736;-67
2022/03/06 04:09:08;;;;;;;13.70;7.60;;;;;;;-7.32;78.05;97680.69;5031429;28;20049;-67
2022/03/06 04:11:35;;;;;;;15.50;8.23;;;;;;;-7.28;79.17;97682.09;5037322;28;20612;-66
2022/03/06 04:14:01;;;;;;;13.48;6.82;;;;;;;-7.39;78.54;97684.78;5044029;28;20037;-66
2022/03/06 04:16:28;;;;;;;19.75;7.75;;;;;;;-7.33;78.67;97694.81;5028353;28;20042;-68
2022/03/06 04:18:55;;;;;;;15.93;7.07;;;;;;;-7.34;78.61;97682.63;5027054;28;20048;-66
2022/03/06 04:21:21;;;;;;;10.55;5.47;;;;;;;-7.37;78.70;97694.22;5039610;28;20045;-68
2022/03/06 04:23:48;;;;;;;17.95;8.00;;;;;;;-7.34;78.91;97690.53;5031567;28;20049;-66
2022/03/06 04:26:15;;;;;;;20.73;8.10;;;;;;;-7.34;78.97;97685.25;5037456;28;20048;-68
2022/03/06 04:28:41;;;;;;;13.07;6.72;;;;;;;-7.33;78.73;97690.38;5030970;28;20033;-65
2022/03/06 04:31:08;;;;;;;18.42;7.93;;;;;;;-7.37;78.61;97698.66;5027900;28;20049;-67
2022/03/06 04:33:34;;;;;;;13.55;6.50;;;;;;;-7.49;78.95;97692.66;5028838;28;20103;-67
2022/03/06 04:36:01;;;;;;;13.90;6.82;;;;;;;-7.51;79.10;97691.94;5027944;28;20042;-70
2022/03/06 04:38:28;;;;;;;16.38;7.45;;;;;;;-7.58;79.77;97695.09;5041004;28;20044;-66
2022/03/06 04:40:54;;;;;;;15.27;7.13;;;;;;;-7.59;79.48;97696.03;5041860;28;20570;-65
2022/03/06 04:43:22;;;;;;;12.30;6.28;;;;;;;-7.51;79.53;97694.56;5034945;28;20033;-65
2022/03/06 04:45:49;;;;;;;13.98;7.72;;;;;;;-7.64;79.48;97705.25;5034123;28;20488;-65
2022/03/06 04:48:15;;;;;;;17.95;7.57;;;;;;;-7.62;79.92;97700.72;5044243;28;20064;-67
2022/03/06 04:50:42;;;;;;;14.55;5.85;;;;;;;-7.59;79.66;97698.66;5028242;28;20048;-67
2022/03/06 04:53:08;;;;;;;14.25;7.03;;;;;;;-7.65;79.28;97704.44;5037236;28;20677;-67
2022/03/06 04:55:35;;;;;;;14.82;6.32;;;;;;;-7.77;80.11;97706.31;5047159;28;20041;-66
2022/03/06 04:58:02;;;;;;;14.10;6.90;;;;;;;-7.74;80.14;97711.28;5044272;28;20103;-69
2022/03/06 05:00:29;;;;;;;18.15;7.25;;;;;;;-7.76;80.14;97707.97;5047503;28;20041;-67
2022/03/06 05:02:55;;;;;;;11.90;7.28;;;;;;;-7.78;80.43;97703.81;5040267;28;20076;-67
2022/03/06 05:05:23;;;;;;;14.82;7.20;;;;;;;-7.77;80.45;97716.81;5044376;28;20504;-69
2022/03/06 05:07:50;;;;;;;11.55;6.82;;;;;;;-7.71;80.27;97718.94;5032673;28;20042;-69
2022/03/06 05:10:16;;;;;;;16.30;6.45;;;;;;;-7.61;80.28;97716.38;5027625;28;20072;-69
2022/03/06 05:12:43;;;;;;;18.23;9.23;;;;;;;-7.52;79.95;97722.66;5032943;28;20498;-68
2022/03/06 05:15:12;;;;;;;19.92;9.52;;;;;;;-7.61;79.58;97720.78;5032997;28;20049;-66
2022/03/06 05:17:40;;;;;;;13.90;6.22;;;;;;;-7.63;79.80;97717.47;5027551;28;20103;-67
2022/03/06 05:20:10;;;;;;;13.90;7.38;;;;;;;-7.68;80.16;97722.28;5027507;28;20121;-67
2022/03/06 05:22:38;;;;;;;18.27;8.20;;;;;;;-7.73;79.88;97722.66;5035053;28;20042;-68
2022/03/06 05:25:06;;;;;;;18.50;7.60;;;;;;;-7.72;80.23;97726.94;5035804;28;20681;-67
2022/03/06 05:27:32;;;;;;;17.60;8.40;;;;;;;-7.69;79.66;97721.44;5027179;28;20045;-70
2022/03/06 05:29:59;;;;;;;17.92;8.57;;;;;;;-7.78;80.47;97722.22;5027488;28;20061;-68
2022/03/06 05:32:25;;;;;;;18.15;7.32;;;;;;;-7.83;80.49;97722.56;5045645;28;20493;-67
2022/03/06 05:34:52;;;;;;;16.58;7.72;;;;;;;-7.75;80.73;97724.56;5038934;28;20052;-65
2022/03/06 05:37:18;;;;;;;15.23;8.38;;;;;;;-7.74;80.31;97721.81;5043636;28;20053;-69
2022/03/06 05:39:45;;;;;;;17.38;7.82;;;;;;;-7.73;80.30;97728.75;5040536;28;20048;-67
2022/03/06 05:42:11;;;;;;;12.25;6.38;;;;;;;-7.63;80.19;97730.63;5028498;28;20037;-66
2022/03/06 05:44:38;;;;;;;19.13;10.30;;;;;;;-7.59;79.66;97732.03;5035432;28;20034;-66
2022/03/06 05:47:05;;;;;;;18.73;8.07;;;;;;;-7.67;79.93;97734.47;5027117;28;20052;-67
2022/03/06 05:49:32;;;;;;;13.43;6.30;;;;;;;-7.64;79.96;97739.44;5034746;28;20041;-67
2022/03/06 05:51:58;;;;;;;17.08;7.72;;;;;;;-7.70;79.91;97740.81;5031590;28;20512;-67
2022/03/06 05:54:25;;;;;;;18.75;9.93;;;;;;;-7.78;80.54;97744.06;5042981;28;20044;-66
2022/03/06 05:56:51;;;;;;;10.82;5.60;;;;;;;-7.74;80.99;97742.03;5043407;28;20045;-69
2022/03/06 05:59:18;;;;;;;14.35;6.72;;;;;;;-7.65;80.28;97743.91;5039954;28;20128;-68
2022/03/06 06:01:44;;;;;;;20.38;9.45;;;;;;;-7.46;79.55;97740.56;5043012;28;20053;-66
2022/03/06 06:04:12;;;;;;;12.73;5.18;;;;;;;-7.63;79.35;97735.88;5042573;28;20148;-67
2022/03/06 06:06:39;;;;;;;11.13;4.80;;;;;;;-7.52;79.75;97738.44;5033876;28;20131;-67
2022/03/06 06:09:05;;;;;;;10.98;5.80;;;;;;;-7.42;79.54;97746.41;5044013;28;20040;-66
2022/03/06 06:11:32;;;;;;;11.43;6.78;;;;;;;-7.46;79.77;97751.09;5039467;28;20086;-69
2022/03/06 06:13:59;;;;;;;12.48;7.03;;;;;;;-7.46;78.72;97742.34;5037860;28;20500;-66
2022/03/06 06:16:25;;;;;;;19.20;8.00;;;;;;;-7.59;79.95;97746.00;5033065;28;20581;-67
2022/03/06 06:18:52;;;;;;;11.55;6.18;;;;;;;-7.62;80.33;97748.91;5040884;28;20041;-67
2022/03/06 06:21:19;;;;;;;15.40;7.18;;;;;;;-7.51;80.18;97742.75;5026520;28;20508;-67
2022/03/06 06:23:46;;;;;;;14.38;7.25;;;;;;;-7.44;79.96;97748.34;5034344;28;20046;-66
2022/03/06 06:26:12;;;;;;;16.50;7.57;;;;;;;-7.40;80.30;97748.91;5027049;28;20049;-67
2022/03/06 06:28:39;;;;;;;16.48;7.97;;;;;;;-7.31;79.63;97751.59;5034943;28;20381;-65
2022/03/06 06:31:07;;;;;;;15.90;8.32;;;;;;;-7.15;79.95;97757.38;5038610;28;20735;-64
2022/03/06 06:33:35;;;;;;;16.33;7.53;;;;;;;-6.99;79.75;97756.91;5030680;28;20037;-70
2022/03/06 06:36:03;;;;;;;16.73;7.93;;;;;;;-6.85;79.20;97753.94;5040570;28;20044;-65
2022/03/06 06:38:30;;;;;;;20.30;7.88;;;;;;;-6.64;79.03;97753.03;5038950;28;20041;-67
2022/03/06 06:40:57;;;;;;;14.35;7.40;;;;;;;-6.47;78.50;97753.38;5038152;28;20049;-69
2022/03/06 06:43:23;;;;;;;21.30;8.82;;;;;;;-6.45;78.45;97744.34;5038185;28;20040;-67
2022/03/06 06:45:50;;;;;;;20.10;8.93;;;;;;;-6.32;78.87;97745.91;5034516;28;20055;-66
2022/03/06 06:48:17;;;;;;;19.90;8.45;;;;;;;-6.15;78.20;97757.63;5040919;28;20037;-67
2022/03/06 06:50:43;;;;;;;21.50;10.10;;;;;;;-5.95;77.97;97758.44;5047954;28;20037;-68
2022/03/06 06:53:10;;;;;;;18.67;8.98;;;;;;;-5.83;77.23;97761.78;5044252;28;20098;-67
2022/03/06 06:55:37;;;;;;;17.55;9.93;;;;;;;-5.72;78.10;97752.06;5026031;28;20057;-67
2022/03/06 06:58:04;;;;;;;15.55;8.02;;;;;;;-5.71;77.89;97751.94;5045334;28;20056;-69
2022/03/06 07:00:31;;;;;;;15.43;7.32;;;;;;;-5.66;77.57;97756.78;5059241;28;20049;-66
2022/03/06 07:02:58;;;;;;;17.63;9.27;;;;;;;-5.62;77.50;97753.75;5045608;28;20059;-64
2022/03/06 07:05:24;;;;;;;18.60;9.50;;;;;;;-5.54;77.71;97752.19;5028813;28;20060;-68
2022/03/06 07:07:53;;;;;;;17.27;8.00;;;;;;;-5.48;77.83;97759.56;5025672;28;20109;-66
2022/03/06 07:10:20;;;;;;;15.93;7.18;;;;;;;-5.46;77.32;97760.25;5026853;28;20064;-68
2022/03/06 07:12:51;;;;;;;17.65;8.90;;;;;;;-5.38;77.62;97765.66;5025858;28;20037;-67
2022/03/06 07:15:17;;;;;;;14.77;8.30;;;;;;;-5.20;77.60;97762.28;5026008;28;20559;-67
2022/03/06 07:17:44;;;;;;;13.77;7.88;;;;;;;-5.13;77.15;97763.41;5024837;28;20740;-69
2022/03/06 07:20:13;;;;;;;21.52;9.57;;;;;;;-5.03;77.97;97767.81;5040091;28;20041;-66
2022/03/06 07:22:40;;;;;;;16.20;8.43;;;;;;;-4.88;77.33;97769.03;5045714;28;20102;-65
2022/03/06 07:25:07;;;;;;;16.23;8.35;;;;;;;-4.64;76.84;97770.34;5032873;28;20527;-66
2022/03/06 07:27:33;;;;;;;17.40;7.00;;;;;;;-4.64;77.94;97767.69;5032761;28;20540;-66
2022/03/06 07:30:00;;;;;;;12.25;7.57;;;;;;;-4.24;76.70;97767.53;5025293;28;20084;-68
2022/03/06 07:32:27;;;;;;;15.77;8.20;;;;;;;-4.14;76.44;97768.31;5035297;28;20075;-66
2022/03/06 07:34:53;;;;;;;16.90;9.70;;;;;;;-3.90;76.39;97769.56;5040788;28;20045;-67
2022/03/06 07:37:20;;;;;;;18.58;9.20;;;;;;;-3.54;75.53;97766.09;5036361;28;20045;-68
2022/03/06 07:39:46;;;;;;;15.55;8.35;;;;;;;-3.11;73.31;97768.06;5035558;28;20056;-69
2022/03/06 07:42:13;;;;;;;18.20;9.15;;;;;;;-2.93;72.04;97774.19;5047378;28;20040;-66
2022/03/06 07:44:40;;;;;;;18.67;8.82;;;;;;;-2.75;71.98;97768.81;5038943;28;20396;-65
2022/03/06 07:47:07;;;;;;;21.05;9.63;;;;;;;-2.54;71.19;97775.53;5029864;28;20068;-66
2022/03/06 07:49:33;;;;;;;18.15;8.88;;;;;;;-2.39;70.31;97767.81;5042905;28;20091;-65
2022/03/06 07:52:03;;;;;;;17.70;9.88;;;;;;;-2.30;69.86;97776.66;5036616;28;20045;-69
2022/03/06 07:54:30;;;;;;;21.10;9.48;;;;;;;-2.24;69.66;97786.63;5029360;28;20740;-67
2022/03/06 07:56:57;;;;;;;23.23;10.45;;;;;;;-2.14;69.75;97778.53;5029377;28;20049;-65
2022/03/06 07:59:25;;;;;;;22.33;11.57;;;;;;;-2.02;69.16;97776.44;5041645;28;20396;-69
2022/03/06 08:01:52;;;;;;;17.67;9.52;;;;;;;-1.91;68.61;97779.78;5053656;28;20044;-67
2022/03/06 08:04:19;;;;;;;16.88;8.38;;;;;;;-1.84;68.85;97783.44;5034803;28;20053;-67
2022/03/06 08:06:47;;;;;;;22.95;9.95;;;;;;;-1.68;68.55;97784.47;5038424;28;20037;-66
2022/03/06 08:09:15;;;;;;;16.92;8.10;;;;;;;-1.57;67.71;97787.66;5042709;28;20033;-66
2022/03/06 08:11:41;;;;;;;19.92;8.75;;;;;;;-1.46;67.58;97783.00;5033098;28;20530;-67
2022/03/06 08:14:08;;;;;;;14.48;7.10;;;;;;;-1.35;67.15;97788.00;5038091;28;20053;-68
2022/03/06 08:16:35;;;;;;;16.40;8.27;;;;;;;-1.33;66.57;97783.34;5039746;28;20787;-67
2022/03/06 08:19:02;;;;;;;17.65;8.20;;;;;;;-1.24;66.88;97794.81;5039166;28;20044;-64
2022/03/06 08:21:28;;;;;;;19.02;9.35;;;;;;;-1.22;66.65;97784.03;5039441;28;20041;-68
2022/03/06 08:23:55;;;;;;;14.93;6.65;;;;;;;-1.18;66.00;97785.34;5033734;28;20059;-66
2022/03/06 08:26:25;;;;;;;18.45;8.45;;;;;;;-1.11;66.14;97793.50;5042290;28;20045;-67
2022/03/06 08:28:52;;;;;;;18.02;9.15;;;;;;;-1.02;65.62;97789.84;5026637;28;20042;-64
2022/03/06 08:31:19;;;;;;;18.42;8.52;;;;;;;-1.04;65.47;97791.81;5035434;28;20103;-67
2022/03/06 08:33:46;;;;;;;17.17;8.82;;;;;;;-0.98;65.83;97791.16;5038672;28;20524;-69
2022/03/06 08:36:13;;;;;;;18.90;10.13;;;;;;;-0.94;65.55;97787.16;5039880;28;20119;-67
2022/03/06 08:38:40;;;;;;;19.00;9.13;;;;;;;-0.87;65.29;97789.97;5043898;28;20099;-66
2022/03/06 08:41:06;;;;;;;15.50;8.63;;;;;;;-0.77;65.51;97791.63;5035604;28;20044;-67
2022/03/06 08:43:33;;;;;;;16.15;8.65;;;;;;;-0.68;65.00;97794.09;5043859;28;20102;-68
2022/03/06 08:46:00;;;;;;;19.38;9.27;;;;;;;-0.65;64.61;97795.59;5047158;28;20661;-67
2022/03/06 08:48:27;;;;;;;20.27;10.30;;;;;;;-0.55;64.15;97798.06;5054059;28;20032;-67
2022/03/06 08:50:53;;;;;;;16.60;8.77;;;;;;;-0.56;64.34;97794.56;5049111;28;20045;-66
2022/03/06 08:53:20;;;;;;;19.90;9.43;;;;;;;-0.50;63.27;97801.03;5033549;28;20482;-65
2022/03/06 08:55:46;;;;;;;14.40;8.13;;;;;;;-0.41;63.28;97789.38;5052136;28;20725;-67
2022/03/06 08:58:13;;;;;;;19.17;8.63;;;;;;;-0.40;63.27;97791.03;5046476;28;20040;-67
2022/03/06 09:00:40;;;;;;;14.77;8.07;;;;;;;-0.38;63.76;97788.19;5045205;28;20056;-66
2022/03/06 09:03:07;;;;;;;17.23;9.20;;;;;;;-0.31;63.61;97788.34;5034080;28;20057;-68
2022/03/06 09:05:40;;;;;;;15.15;7.50;;;;;;;-0.22;63.46;97792.63;5026825;28;20049;-64
2022/03/06 09:08:10;;;;;;;15.82;8.10;;;;;;;-0.10;62.71;97789.59;5031607;28;20044;-65
2022/03/06 09:10:39;;;;;;;17.58;8.48;;;;;;;-0.06;63.08;97781.09;5032334;28;20045;-66
2022/03/06 09:13:06;;;;;;;17.27;9.15;;;;;;;0.07;62.45;97774.41;5047594;28;20045;-69
2022/03/06 09:15:34;;;;;;;16.33;8.23;;;;;;;0.06;61.95;97786.03;5046862;28;20107;-64
2022/03/06 09:18:01;;;;;;;18.98;8.48;;;;;;;0.18;61.75;97779.31;5040275;28;20045;-66
2022/03/06 09:20:27;;;;;;;18.98;9.10;;;;;;;0.18;60.98;97775.84;5038979;28;20115;-64
2022/03/06 09:22:54;;;;;;;16.42;8.90;;;;;;;0.32;60.56;97775.06;5041149;28;20048;-67
2022/03/06 09:25:21;;;;;;;17.83;7.30;;;;;;;0.35;60.50;97773.88;5035957;28;20041;-65
2022/03/06 09:27:48;;;;;;;15.95;7.93;;;;;;;0.51;60.74;97776.44;5042649;28;20033;-68
2022/03/06 09:30:15;;;;;;;18.00;8.52;;;;;;;0.60;60.05;97776.38;5044214;28;20503;-67
2022/03/06 09:32:42;;;;;;;19.15;8.65;;;;;;;0.62;59.88;97775.19;5038176;28;20044;-64
2022/03/06 09:35:10;;;;;;;17.40;8.57;;;;;;;0.76;59.89;97772.75;5030641;28;20049;-50
2022/03/06 09:37:41;;;;;;;17.73;8.98;;;;;;;0.80;59.16;97771.41;5036274;28;20052;-49
2022/03/06 09:40:09;;;;;;;19.95;8.70;;;;;;;0.91;58.17;97778.13;5038403;28;20102;-51
2022/03/06 09:42:35;;;;;;;18.40;8.48;;;;;;;1.15;58.33;97777.09;5044199;28;20052;-49
2022/03/06 09:45:08;;;;;;;15.77;8.77;;;;;;;1.24;56.33;97777.00;5036386;28;20053;-53
2022/03/06 09:47:36;;;;;;;14.10;6.93;;;;;;;1.54;55.94;97767.19;5039532;28;20055;-54
2022/03/06 09:50:05;;;;;;;15.73;8.15;;;;;;;1.58;54.07;97769.50;5037551;28;20138;-50
2022/03/06 09:52:33;;;;;;;14.35;7.40;;;;;;;1.35;57.56;97765.91;5041200;28;20044;-48
2022/03/06 09:55:00;;;;;;;15.15;7.70;;;;;;;1.60;55.06;97765.63;5037024;28;20050;-48
2022/03/06 09:57:27;;;;;;;16.33;8.05;;;;;;;1.89;53.83;97766.63;5044596;28;20427;-51
2022/03/06 09:59:54;;;;;;;15.52;7.68;;;;;;;2.07;52.42;97771.56;5043575;28;20067;-50
2022/03/06 10:02:20;;;;;;;15.82;9.48;;;;;;;1.82;52.82;97765.72;5045128;28;20079;-49
2022/03/06 10:04:47;;;;;;;15.05;8.32;;;;;;;1.91;52.46;97777.94;5028808;28;20508;-46
2022/03/06 10:07:16;;;;;;;15.18;7.05;;;;;;;1.96;51.10;97772.06;5043809;28;20056;-49
2022/03/06 10:09:54;;;;;;;12.98;6.40;;;;;;;1.90;50.94;97770.94;5036457;28;20037;-47
2022/03/06 10:12:22;;;;;;;13.65;6.75;;;;;;;2.11;51.37;97769.34;5026360;28;20053;-66
2022/03/06 10:14:51;;;;;;;18.20;8.50;;;;;;;2.14;51.17;97765.47;5039078;28;20041;-67
2022/03/06 10:17:23;;;;;;;16.88;9.13;;;;;;;2.14;51.60;97768.16;5039576;28;20389;-67
2022/03/06 10:19:50;;;;;;;17.30;7.65;;;;;;;2.26;50.96;97763.97;5038748;28;20591;-66
2022/03/06 10:22:17;;;;;;;15.70;8.27;;;;;;;2.43;51.49;97769.09;5046452;28;20048;-66
2022/03/06 10:24:52;;;;;;;15.27;8.60;;;;;;;2.41;50.46;97771.13;5023337;28;20046;-66
2022/03/06 10:27:44;;;;;;;16.15;8.02;;;;;;;2.65;50.06;97766.44;5035809;28;20041;-66
2022/03/06 10:30:23;;;;;;;14.63;7.32;;;;;;;2.37;47.94;97780.53;5035679;28;20684;-67
2022/03/06 10:32:50;;;;;;;14.88;6.75;;;;;;;2.46;49.02;97777.56;5042562;28;20044;-68
2022/03/06 10:35:25;;;;;;;14.00;7.53;;;;;;;2.30;49.74;97775.09;5041550;28;20840;-67
2022/03/06 10:37:52;;;;;;;14.50;7.95;;;;;;;2.12;49.97;97783.53;5043463;28;20716;-66
2022/03/06 10:40:35;;;;;;;19.50;8.90;;;;;;;1.86;49.97;97783.03;5037276;28;20456;-67
2022/03/06 10:43:16;;;;;;;18.42;7.75;;;;;;;2.07;50.08;97782.25;5029878;28;20091;-68
2022/03/06 10:45:45;;;;;;;17.92;7.97;;;;;;;2.14;49.50;97776.97;5034718;28;20044;-67
2022/03/06 10:48:12;;;;;;;18.83;8.70;;;;;;;2.53;49.11;97772.28;5034641;28;20044;-67
2022/03/06 10:50:38;;;;;;;13.75;6.97;;;;;;;2.89;48.70;97767.88;5034808;28;20090;-67
2022/03/06 10:53:24;;;;;;;16.90;8.70;;;;;;;2.92;48.80;97763.97;5033665;28;20060;-67
2022/03/06 10:55:53;;;;;;;16.52;8.27;;;;;;;2.77;48.96;97766.72;5031507;28;20753;-67
2022/03/06 10:58:20;;;;;;;16.25;8.70;;;;;;;2.70;48.07;97769.34;5024004;28;20045;-66
2022/03/06 11:00:48;;;;;;;16.02;7.18;;;;;;;2.66;48.09;97766.25;5045015;28;20055;-67
2022/03/06 11:03:15;;;;;;;17.65;9.52;;;;;;;2.61;48.09;97782.00;5041459;28;20041;-67
2022/03/06 11:05:44;;;;;;;16.20;8.38;;;;;;;2.58;48.48;97774.38;5033043;28;20107;-67
2022/03/06 11:08:14;;;;;;;18.67;7.95;;;;;;;2.68;46.84;97768.69;5037579;28;20045;-64
2022/03/06 11:10:42;;;;;;;15.52;8.88;;;;;;;2.77;47.31;97772.09;5036838;28;20048;-67
2022/03/06 11:13:13;;;;;;;19.40;8.45;;;;;;;2.90;46.23;97766.84;5046121;28;20063;-67
2022/03/06 11:15:41;;;;;;;16.25;8.25;;;;;;;2.82;45.93;97766.97;5033224;28;20124;-66
2022/03/06 11:18:08;;;;;;;14.65;7.22;;;;;;;3.00;45.99;97769.19;5041826;28;20045;-67
2022/03/06 11:20:37;;;;;;;13.57;7.43;;;;;;;3.06;45.54;97772.94;5043295;28;20068;-67
2022/03/06 11:23:21;;;;;;;16.42;8.57;;;;;;;3.07;45.69;97774.59;5041586;28;20506;-65
2022/03/06 11:26:05;;;;;;;13.63;7.30;;;;;;;2.68;45.79;97766.88;5034210;28;20048;-65
2022/03/06 11:28:54;;;;;;;17.27;8.27;;;;;;;2.73;45.68;97763.63;5042261;28;20052;-65